Terminal Aerodrome Forecast
Issued by NWS

Home | Current Version | Previous Version | Graphics & Text | Print | Product List | Glossary On
Versions: 1 2 3 4 5 6 7 8 9 10 11 12 13 14 15 16 17 18 19 20 21 22 23
000
FTUS43 KBIS 180405 AAB
TAFDIK
TAF AMD
KDIK 180405Z 1804/1824 08012KT P6SM BKN200
     FM180600 07009KT 5SM BR OVC015
     FM180900 04008KT 6SM -SHRA BR OVC008
     FM181200 01010KT 2SM -SHRA BR OVC005
     FM181500 35011KT P6SM VCSH OVC008=

USA.gov is the U.S. government's official web portal to all federal, state and local government web resources and services.